createdAt,value
2022-10-31T00:01:36.617Z,0.90
2022-10-31T00:04:05.247Z,0.55
2022-10-31T00:06:33.181Z,1.02
2022-10-31T00:09:04.048Z,0.80
2022-10-31T00:11:32.387Z,0.70
2022-10-31T00:14:01.028Z,0.73
2022-10-31T00:16:30.034Z,0.60
2022-10-31T00:19:00.193Z,0.80
2022-10-31T00:21:28.191Z,0.80
2022-10-31T00:23:56.094Z,0.80
2022-10-31T00:26:24.067Z,0.88
2022-10-31T00:28:52.354Z,1.00
2022-10-31T00:31:20.352Z,0.55
2022-10-31T00:33:48.293Z,0.63
2022-10-31T00:36:20.574Z,0.45
2022-10-31T00:38:49.734Z,0.50
2022-10-31T00:41:18.712Z,0.60
2022-10-31T00:43:46.718Z,0.60
2022-10-31T00:46:14.989Z,0.70
2022-10-31T00:48:43.875Z,0.57
2022-10-31T00:51:12.346Z,0.50
2022-10-31T00:53:42.098Z,0.50
2022-10-31T00:56:09.977Z,0.75
2022-10-31T00:58:38.134Z,1.10
2022-10-31T01:01:06.589Z,0.70
2022-10-31T01:03:36.644Z,0.70
2022-10-31T01:06:06.590Z,0.60
2022-10-31T01:08:36.067Z,0.70
2022-10-31T01:11:12.986Z,0.40
2022-10-31T01:13:42.614Z,0.50
2022-10-31T01:16:14.181Z,0.50
2022-10-31T01:18:42.007Z,0.55
2022-10-31T01:21:16.018Z,0.50
2022-10-31T01:23:44.174Z,0.80
2022-10-31T01:26:23.310Z,0.50
2022-10-31T01:29:00.403Z,0.52
2022-10-31T01:31:35.298Z,0.50
2022-10-31T01:34:04.128Z,0.55
2022-10-31T01:36:37.224Z,0.60
2022-10-31T01:39:08.489Z,0.50
2022-10-31T01:41:43.159Z,0.60
2022-10-31T01:44:17.150Z,0.50
2022-10-31T01:46:59.372Z,0.60
2022-10-31T01:49:48.114Z,0.50
2022-10-31T01:52:25.825Z,0.70
2022-10-31T01:55:00.992Z,0.45
2022-10-31T01:57:30.672Z,0.70
2022-10-31T02:00:02.975Z,0.38
2022-10-31T02:02:42.055Z,0.50
2022-10-31T02:05:15.704Z,0.47
2022-10-31T02:08:05.594Z,0.40
2022-10-31T02:10:34.808Z,0.43
2022-10-31T02:13:04.966Z,0.50
2022-10-31T02:15:34.217Z,0.73
2022-10-31T02:18:02.631Z,0.40
2022-10-31T02:20:53.883Z,0.60
2022-10-31T02:23:42.227Z,0.55
2022-10-31T02:26:45.537Z,0.50
2022-10-31T02:29:42.863Z,0.38
2022-10-31T02:32:22.781Z,0.50
2022-10-31T02:34:59.187Z,0.50
2022-10-31T02:37:33.486Z,0.52
2022-10-31T02:40:07.139Z,0.60
2022-10-31T02:43:18.245Z,0.55
2022-10-31T02:45:55.060Z,0.50
2022-10-31T02:48:28.556Z,0.57
2022-10-31T02:51:03.826Z,0.40
2022-10-31T02:53:36.383Z,0.50
2022-10-31T02:56:18.503Z,0.70
2022-10-31T02:58:51.818Z,0.50
2022-10-31T03:01:41.000Z,0.55
2022-10-31T03:04:25.724Z,0.40
2022-10-31T03:07:31.503Z,0.50
2022-10-31T03:10:10.855Z,0.40
2022-10-31T03:12:49.351Z,0.47
2022-10-31T03:15:29.044Z,0.52
2022-10-31T03:18:36.330Z,0.50
2022-10-31T03:21:37.891Z,0.35
2022-10-31T03:24:08.243Z,0.60
2022-10-31T03:26:44.626Z,0.65
2022-10-31T03:29:18.075Z,0.40
2022-10-31T03:32:03.517Z,0.40
2022-10-31T03:34:33.291Z,0.70
2022-10-31T03:37:05.519Z,0.40
2022-10-31T03:39:35.097Z,0.47
2022-10-31T03:42:13.073Z,0.40
2022-10-31T03:44:45.672Z,0.90
2022-10-31T03:47:14.445Z,0.50
2022-10-31T03:49:42.543Z,0.50
2022-10-31T03:52:19.272Z,0.57
2022-10-31T03:54:53.043Z,0.50
2022-10-31T03:57:30.299Z,0.40
2022-10-31T04:00:13.717Z,0.45
2022-10-31T04:02:57.657Z,0.57
2022-10-31T04:05:28.186Z,0.35
2022-10-31T04:08:02.563Z,0.32
2022-10-31T04:10:34.023Z,0.52
2022-10-31T04:13:07.569Z,0.55
2022-10-31T04:15:44.349Z,0.40
2022-10-31T04:18:12.790Z,0.50
2022-10-31T04:20:43.246Z,0.43
2022-10-31T04:23:29.654Z,0.40
2022-10-31T04:28:26.527Z,0.40
2022-10-31T04:30:55.408Z,0.52
2022-10-31T04:33:24.031Z,0.57
2022-10-31T04:35:52.344Z,0.88
2022-10-31T04:38:20.246Z,0.60
2022-10-31T04:40:50.169Z,0.40
2022-10-31T04:43:36.981Z,0.40
2022-10-31T04:46:05.521Z,0.40
2022-10-31T04:48:33.749Z,0.32
2022-10-31T04:51:04.791Z,0.55
2022-10-31T04:53:34.055Z,0.60
2022-10-31T04:56:22.384Z,1.65
2022-10-31T04:58:54.750Z,0.65
2022-10-31T05:01:24.131Z,0.40
2022-10-31T05:03:52.262Z,0.40
2022-10-31T05:06:20.273Z,0.50
2022-10-31T05:08:48.481Z,0.65
2022-10-31T05:11:16.775Z,0.40
2022-10-31T05:13:45.913Z,0.47
2022-10-31T05:16:13.848Z,1.23
2022-10-31T05:18:41.736Z,0.40
2022-10-31T05:21:28.684Z,0.40
2022-10-31T05:24:00.979Z,0.50
2022-10-31T05:26:30.016Z,0.43
2022-10-31T05:28:58.196Z,0.40
2022-10-31T05:31:26.124Z,1.35
2022-10-31T05:33:55.366Z,0.40
2022-10-31T05:36:41.852Z,0.82
2022-10-31T05:39:18.068Z,0.40
2022-10-31T05:41:51.571Z,1.17
2022-10-31T05:44:26.854Z,0.65
2022-10-31T05:47:14.614Z,0.50
2022-10-31T05:50:01.460Z,0.60
2022-10-31T05:53:06.890Z,0.32
2022-10-31T05:55:38.161Z,0.63
2022-10-31T05:58:12.770Z,0.60
2022-10-31T06:00:44.171Z,0.50
2022-10-31T06:03:13.306Z,0.47
2022-10-31T06:05:52.337Z,0.95
2022-10-31T06:08:25.803Z,0.85
2022-10-31T06:10:55.469Z,0.73
2022-10-31T06:13:43.347Z,0.40
2022-10-31T06:16:18.177Z,0.55
2022-10-31T06:18:48.035Z,0.55
2022-10-31T06:21:18.984Z,0.60
2022-10-31T06:23:50.077Z,0.40
2022-10-31T06:26:46.694Z,0.60
2022-10-31T06:29:14.877Z,0.50
2022-10-31T06:31:58.407Z,0.50
2022-10-31T06:34:26.371Z,0.50
2022-10-31T06:36:54.196Z,0.60
2022-10-31T06:39:25.376Z,0.50
2022-10-31T06:41:54.625Z,0.45
2022-10-31T06:44:23.983Z,0.47
2022-10-31T06:47:01.148Z,0.60
2022-10-31T06:49:51.127Z,0.50
2022-10-31T06:52:24.665Z,0.47
2022-10-31T06:54:53.336Z,0.60
2022-10-31T06:57:22.625Z,0.45
2022-10-31T06:59:51.209Z,0.50
2022-10-31T07:02:23.137Z,0.57
2022-10-31T07:04:51.938Z,0.75
2022-10-31T07:07:22.517Z,0.65
2022-10-31T07:09:51.842Z,0.40
2022-10-31T07:12:25.164Z,0.57
2022-10-31T07:14:58.980Z,1.10
2022-10-31T07:17:29.859Z,0.68
2022-10-31T07:20:00.923Z,0.60
2022-10-31T07:22:37.447Z,0.70
2022-10-31T07:25:08.333Z,0.55
2022-10-31T07:27:54.651Z,1.40
2022-10-31T07:30:23.006Z,1.00
2022-10-31T07:32:55.110Z,0.70
2022-10-31T07:35:26.197Z,0.60
2022-10-31T07:37:58.564Z,1.10
2022-10-31T07:40:26.931Z,1.27
2022-10-31T07:42:55.351Z,0.70
2022-10-31T07:45:41.415Z,0.80
2022-10-31T07:48:35.221Z,1.10
2022-10-31T07:51:23.024Z,0.90
2022-10-31T07:54:09.589Z,1.00
2022-10-31T07:56:38.889Z,1.02
2022-10-31T07:59:07.240Z,1.00
2022-10-31T08:01:36.114Z,0.98
2022-10-31T08:04:22.566Z,3.45
2022-10-31T08:07:08.943Z,4.82
2022-10-31T08:09:38.938Z,3.00
2022-10-31T08:12:18.172Z,2.35
2022-10-31T08:14:46.319Z,1.88
2022-10-31T08:17:16.322Z,1.60
2022-10-31T08:19:55.370Z,1.40
2022-10-31T08:22:28.625Z,1.10
2022-10-31T08:24:56.629Z,1.00
2022-10-31T08:27:24.831Z,0.80
2022-10-31T08:29:52.914Z,0.90
2022-10-31T08:32:20.930Z,0.80
2022-10-31T08:35:07.527Z,0.90
2022-10-31T08:37:59.409Z,1.52
2022-10-31T08:40:30.441Z,1.20
2022-10-31T08:43:08.071Z,0.75
2022-10-31T08:45:36.691Z,0.73
2022-10-31T08:48:11.251Z,0.75
2022-10-31T08:50:39.573Z,0.90
2022-10-31T08:53:11.930Z,0.50
2022-10-31T08:55:42.809Z,0.82
2022-10-31T08:58:25.248Z,0.82
2022-10-31T09:01:00.045Z,0.70
2022-10-31T09:03:32.057Z,0.77
2022-10-31T09:06:04.032Z,0.73
2022-10-31T09:08:33.058Z,0.73
2022-10-31T09:11:03.259Z,0.70
2022-10-31T09:13:49.811Z,0.80
2022-10-31T09:16:17.385Z,0.70
2022-10-31T09:18:45.411Z,0.60
2022-10-31T09:21:17.019Z,0.60
2022-10-31T09:23:45.110Z,0.70
2022-10-31T09:26:12.989Z,0.70
2022-10-31T09:29:03.899Z,0.55
2022-10-31T09:31:32.685Z,0.80
2022-10-31T09:34:38.987Z,0.60
2022-10-31T09:37:10.038Z,0.60
2022-10-31T09:39:37.961Z,0.40
2022-10-31T09:42:35.861Z,0.70
2022-10-31T09:45:19.454Z,0.70
2022-10-31T09:48:18.201Z,0.70
2022-10-31T09:51:18.040Z,0.57
2022-10-31T09:54:39.415Z,1.20
2022-10-31T09:57:11.950Z,0.85
2022-10-31T09:59:43.157Z,0.50
2022-10-31T10:02:32.974Z,0.73
2022-10-31T10:05:27.663Z,0.75
2022-10-31T10:08:03.320Z,0.55
2022-10-31T10:11:24.779Z,0.93
2022-10-31T10:14:39.826Z,0.52
2022-10-31T10:17:24.617Z,0.80
2022-10-31T10:22:56.645Z,1.85
2022-10-31T10:25:32.701Z,1.67
2022-10-31T10:28:21.105Z,1.50
2022-10-31T10:30:58.538Z,1.77
2022-10-31T10:33:57.214Z,1.40
2022-10-31T10:36:41.051Z,1.50
2022-10-31T10:39:19.724Z,1.10
2022-10-31T10:42:08.433Z,0.63
2022-10-31T10:44:59.702Z,0.90
2022-10-31T10:47:41.598Z,0.55
2022-10-31T10:50:21.599Z,0.70
2022-10-31T10:53:32.975Z,0.45
2022-10-31T10:56:16.925Z,0.90
2022-10-31T10:58:46.405Z,0.80
2022-10-31T11:03:47.719Z,0.40
2022-10-31T11:06:27.101Z,0.90
2022-10-31T11:08:54.750Z,0.73
2022-10-31T11:11:27.882Z,0.50
2022-10-31T11:14:15.678Z,0.80
2022-10-31T11:16:51.693Z,1.00
2022-10-31T11:19:28.279Z,0.47
2022-10-31T11:22:06.471Z,0.40
2022-10-31T11:24:40.552Z,0.68
2022-10-31T11:27:27.634Z,0.60
2022-10-31T11:30:06.166Z,0.50
2022-10-31T11:32:34.068Z,0.70
2022-10-31T11:35:09.670Z,0.50
2022-10-31T11:37:43.962Z,1.10
2022-10-31T11:40:22.250Z,0.40
2022-10-31T11:42:52.229Z,0.85
2022-10-31T11:45:31.340Z,0.60
2022-10-31T11:48:02.392Z,0.40
2022-10-31T11:50:42.724Z,0.35
2022-10-31T11:53:17.452Z,0.50
2022-10-31T11:55:46.878Z,0.52
2022-10-31T11:58:27.855Z,1.05
2022-10-31T12:00:57.662Z,0.40
2022-10-31T12:03:25.423Z,0.28
2022-10-31T12:06:19.885Z,0.93
2022-10-31T12:08:47.840Z,0.40
2022-10-31T12:11:30.432Z,0.73
2022-10-31T12:14:31.846Z,0.40
2022-10-31T12:17:15.855Z,0.82
2022-10-31T12:20:05.493Z,0.93
2022-10-31T12:22:36.108Z,0.63
2022-10-31T12:25:22.603Z,0.40
2022-10-31T12:28:11.839Z,0.30
2022-10-31T12:31:01.870Z,0.35
2022-10-31T12:33:44.859Z,0.40
2022-10-31T12:36:59.487Z,0.85
2022-10-31T12:39:29.676Z,0.30
2022-10-31T12:42:07.501Z,0.43
2022-10-31T12:44:49.835Z,0.40
2022-10-31T12:47:44.369Z,0.57
2022-10-31T12:50:41.151Z,0.30
2022-10-31T12:53:20.815Z,0.40
2022-10-31T12:56:30.742Z,0.30
2022-10-31T12:59:20.207Z,0.30
2022-10-31T13:01:54.817Z,0.40
2022-10-31T13:07:09.429Z,0.30
2022-10-31T13:10:23.558Z,0.30
2022-10-31T13:12:55.830Z,0.20
2022-10-31T13:15:28.782Z,0.30
2022-10-31T13:18:00.558Z,0.30
2022-10-31T13:20:35.405Z,0.30
2022-10-31T13:23:30.068Z,0.40
2022-10-31T13:26:10.670Z,0.40
2022-10-31T13:29:10.489Z,0.30
2022-10-31T13:31:42.765Z,0.40
2022-10-31T13:34:31.701Z,0.30
2022-10-31T13:37:07.431Z,0.43
2022-10-31T13:40:02.245Z,0.38
2022-10-31T13:43:15.942Z,0.50
2022-10-31T13:45:54.835Z,0.50
2022-10-31T13:48:42.247Z,0.50
2022-10-31T13:51:13.029Z,0.50
2022-10-31T13:53:52.606Z,0.40
2022-10-31T13:56:31.776Z,0.60
2022-10-31T13:59:16.280Z,0.40
2022-10-31T14:01:56.499Z,0.40
2022-10-31T14:04:26.204Z,0.30
2022-10-31T14:07:11.640Z,0.40
2022-10-31T14:10:09.276Z,0.52
2022-10-31T14:12:44.195Z,0.40
2022-10-31T14:15:21.683Z,0.32
2022-10-31T14:18:03.753Z,0.43
2022-10-31T14:20:39.403Z,0.30
2022-10-31T14:23:32.153Z,0.50
2022-10-31T14:26:19.790Z,0.22
2022-10-31T14:28:49.303Z,0.50
2022-10-31T14:31:37.713Z,0.40
2022-10-31T14:34:30.313Z,0.90
2022-10-31T14:37:02.978Z,0.50
2022-10-31T14:40:04.239Z,0.60
2022-10-31T14:42:36.194Z,0.30
2022-10-31T14:45:17.395Z,0.43
2022-10-31T14:48:08.096Z,0.50
2022-10-31T14:50:44.355Z,0.38
2022-10-31T14:53:23.951Z,0.50
2022-10-31T14:55:54.947Z,0.40
2022-10-31T14:58:38.550Z,0.38
2022-10-31T15:01:07.542Z,0.43
2022-10-31T15:03:44.816Z,0.30
2022-10-31T15:06:26.829Z,0.22
2022-10-31T15:08:58.632Z,0.50
2022-10-31T15:11:28.552Z,0.30
2022-10-31T15:13:58.480Z,0.80
2022-10-31T15:19:08.062Z,0.60
2022-10-31T15:21:37.761Z,0.40
2022-10-31T15:24:05.806Z,0.68
2022-10-31T15:26:45.715Z,0.40
2022-10-31T15:29:18.431Z,0.40
2022-10-31T15:32:03.872Z,0.50
2022-10-31T15:34:34.531Z,0.65
2022-10-31T15:37:02.395Z,0.70
2022-10-31T15:39:30.077Z,0.60
2022-10-31T15:42:01.187Z,0.80
2022-10-31T15:44:35.180Z,0.70
2022-10-31T15:47:05.272Z,0.80
2022-10-31T15:49:39.701Z,0.70
2022-10-31T15:52:26.614Z,0.47
2022-10-31T15:55:18.766Z,0.52
2022-10-31T15:57:53.970Z,0.30
2022-10-31T16:00:28.515Z,0.50
2022-10-31T16:05:51.507Z,0.50
2022-10-31T16:08:32.185Z,0.90
2022-10-31T16:11:17.767Z,0.52
2022-10-31T16:14:27.634Z,0.57
2022-10-31T16:16:58.855Z,0.73
2022-10-31T16:19:33.832Z,0.50
2022-10-31T16:22:13.038Z,0.93
2022-10-31T16:24:50.214Z,0.60
2022-10-31T16:27:30.431Z,0.57
2022-10-31T16:30:05.048Z,0.55
2022-10-31T16:35:29.579Z,0.60
2022-10-31T16:37:57.355Z,0.80
2022-10-31T16:40:25.290Z,0.50
2022-10-31T16:42:53.561Z,0.73
2022-10-31T16:45:24.288Z,0.70
2022-10-31T16:47:52.743Z,0.70
2022-10-31T16:50:25.577Z,0.55
2022-10-31T16:53:12.746Z,0.95
2022-10-31T16:56:13.420Z,0.90
2022-10-31T16:58:41.449Z,0.85
2022-10-31T17:01:09.134Z,0.80
2022-10-31T17:03:37.424Z,1.00
2022-10-31T17:06:05.503Z,0.70
2022-10-31T17:08:34.223Z,0.77
2022-10-31T17:11:01.916Z,1.10
2022-10-31T17:13:32.861Z,0.60
2022-10-31T17:16:03.049Z,0.80
2022-10-31T17:18:31.225Z,0.60
2022-10-31T17:21:01.359Z,0.95
2022-10-31T17:23:29.507Z,0.77
2022-10-31T17:25:57.542Z,0.80
2022-10-31T17:28:26.876Z,0.70
2022-10-31T17:30:56.282Z,0.82
2022-10-31T17:33:23.974Z,2.17
2022-10-31T17:35:51.923Z,2.05
2022-10-31T17:38:19.626Z,1.63
2022-10-31T17:43:15.615Z,2.00
2022-10-31T17:45:43.158Z,1.38
2022-10-31T17:48:12.970Z,2.33
2022-10-31T17:50:40.853Z,2.42
2022-10-31T17:53:08.562Z,1.60
2022-10-31T17:55:37.571Z,2.55
2022-10-31T17:58:05.756Z,2.42
2022-10-31T18:00:34.240Z,2.90
2022-10-31T18:03:04.195Z,3.58
2022-10-31T18:05:32.897Z,2.28
2022-10-31T18:08:04.027Z,2.95
2022-10-31T18:10:32.383Z,3.92
2022-10-31T18:13:00.302Z,4.40
2022-10-31T18:15:28.302Z,4.13
2022-10-31T18:17:55.942Z,4.40
2022-10-31T18:20:23.588Z,4.18
2022-10-31T18:22:51.108Z,4.63
2022-10-31T18:25:18.694Z,5.35
2022-10-31T18:27:46.263Z,6.30
2022-10-31T18:30:14.255Z,5.45
2022-10-31T18:32:42.021Z,6.18
2022-10-31T18:35:09.634Z,3.92
2022-10-31T18:37:37.382Z,7.10
2022-10-31T18:40:05.247Z,6.57
2022-10-31T18:42:32.812Z,6.40
2022-10-31T18:45:11.189Z,6.35
2022-10-31T18:47:44.993Z,7.05
2022-10-31T18:50:12.689Z,4.75
2022-10-31T18:52:40.409Z,5.45
2022-10-31T18:55:08.634Z,7.22
2022-10-31T18:57:36.787Z,6.78
2022-10-31T19:00:05.889Z,8.73
2022-10-31T19:02:33.580Z,6.13
2022-10-31T19:05:01.146Z,7.32
2022-10-31T19:07:28.843Z,7.55
2022-10-31T19:09:56.376Z,7.18
2022-10-31T19:12:24.113Z,6.75
2022-10-31T19:14:51.724Z,6.72
2022-10-31T19:17:19.608Z,7.85
2022-10-31T19:19:47.434Z,6.10
2022-10-31T19:22:14.993Z,6.88
2022-10-31T19:24:42.836Z,7.00
2022-10-31T19:27:10.956Z,7.45
2022-10-31T19:29:38.643Z,6.88
2022-10-31T19:32:06.650Z,6.70
2022-10-31T19:34:34.360Z,7.07
2022-10-31T19:37:02.181Z,4.93
2022-10-31T19:39:30.199Z,8.00
2022-10-31T19:41:57.857Z,6.10
2022-10-31T19:44:25.701Z,7.15
2022-10-31T19:46:54.177Z,7.60
2022-10-31T19:49:22.278Z,5.40
2022-10-31T19:51:51.089Z,5.60
2022-10-31T19:54:18.987Z,5.72
2022-10-31T19:56:46.670Z,6.05
2022-10-31T19:59:14.680Z,5.47
2022-10-31T20:01:42.672Z,6.35
2022-10-31T20:04:10.805Z,6.20
2022-10-31T20:06:41.038Z,5.55
2022-10-31T20:09:13.946Z,5.82
2022-10-31T20:11:43.769Z,5.63
2022-10-31T20:14:15.323Z,6.80
2022-10-31T20:16:43.450Z,5.82
2022-10-31T20:19:11.074Z,6.13
2022-10-31T20:21:40.484Z,5.40
2022-10-31T20:24:10.120Z,5.90
2022-10-31T20:26:41.050Z,4.32
2022-10-31T20:29:16.123Z,5.38
2022-10-31T20:31:45.505Z,4.47
2022-10-31T20:34:14.078Z,5.32
2022-10-31T20:36:41.482Z,4.07
2022-10-31T20:39:09.863Z,3.72
2022-10-31T20:41:39.587Z,3.63
2022-10-31T20:44:07.239Z,3.05
2022-10-31T20:46:35.066Z,2.88
2022-10-31T20:49:02.708Z,2.00
2022-10-31T20:51:31.951Z,1.83
2022-10-31T20:54:00.385Z,2.28
2022-10-31T20:56:28.766Z,2.90
2022-10-31T20:58:57.298Z,2.80
2022-10-31T21:01:30.364Z,2.40
2022-10-31T21:03:59.060Z,3.20
2022-10-31T21:06:27.034Z,2.65
2022-10-31T21:08:54.717Z,2.35
2022-10-31T21:11:24.583Z,3.20
2022-10-31T21:13:52.372Z,3.20
2022-10-31T21:16:24.494Z,1.98
2022-10-31T21:18:53.355Z,2.13
2022-10-31T21:21:28.903Z,2.60
2022-10-31T21:24:03.290Z,1.80
2022-10-31T21:26:33.934Z,2.70
2022-10-31T21:29:02.253Z,1.52
2022-10-31T21:31:29.810Z,2.78
2022-10-31T21:33:58.107Z,3.03
2022-10-31T21:36:26.406Z,2.20
2022-10-31T21:38:55.698Z,4.07
2022-10-31T21:41:24.779Z,2.42
2022-10-31T21:43:56.030Z,3.05
2022-10-31T21:46:28.707Z,2.53
2022-10-31T21:48:56.921Z,2.53
2022-10-31T21:51:30.134Z,2.92
2022-10-31T21:54:16.592Z,2.65
2022-10-31T21:56:44.701Z,3.05
2022-10-31T21:59:12.650Z,2.53
2022-10-31T22:01:40.703Z,2.53
2022-10-31T22:04:08.978Z,2.72
2022-10-31T22:06:37.035Z,2.33
2022-10-31T22:09:08.382Z,2.20
2022-10-31T22:11:36.414Z,2.47
2022-10-31T22:14:05.042Z,2.70
2022-10-31T22:16:36.026Z,1.83
2022-10-31T22:19:05.949Z,1.33
2022-10-31T22:21:41.019Z,1.70
2022-10-31T22:24:09.693Z,1.85
2022-10-31T22:26:38.015Z,1.52
2022-10-31T22:29:11.267Z,2.88
2022-10-31T22:31:41.401Z,1.17
2022-10-31T22:34:09.425Z,1.58
2022-10-31T22:36:38.000Z,1.65
2022-10-31T22:39:06.779Z,1.40
2022-10-31T22:41:36.545Z,1.17
2022-10-31T22:44:05.668Z,1.70
2022-10-31T22:46:36.411Z,1.52
2022-10-31T22:49:07.103Z,0.98
2022-10-31T22:51:38.050Z,1.00
2022-10-31T22:54:08.106Z,1.00
2022-10-31T22:56:35.977Z,0.88
2022-10-31T22:59:03.886Z,1.00
2022-10-31T23:01:34.433Z,0.90
2022-10-31T23:04:02.428Z,1.00
2022-10-31T23:06:31.903Z,1.50
2022-10-31T23:09:01.218Z,0.90
2022-10-31T23:11:40.175Z,0.70
2022-10-31T23:14:14.264Z,0.90
2022-10-31T23:16:49.445Z,0.65
2022-10-31T23:19:28.459Z,0.63
2022-10-31T23:22:02.542Z,0.60
2022-10-31T23:24:40.137Z,0.75
2022-10-31T23:27:24.730Z,0.60
2022-10-31T23:29:54.587Z,1.17
2022-10-31T23:32:27.266Z,0.40
2022-10-31T23:34:59.599Z,0.80
2022-10-31T23:37:29.122Z,1.63
2022-10-31T23:39:57.321Z,0.70
2022-10-31T23:42:26.201Z,0.75
2022-10-31T23:44:54.756Z,0.60
2022-10-31T23:47:23.442Z,0.90
2022-10-31T23:49:51.267Z,1.20
2022-10-31T23:52:19.293Z,1.15
2022-10-31T23:54:46.924Z,1.35
2022-10-31T23:57:15.766Z,1.00
2022-10-31T23:59:43.943Z,1.35
